sensor_id;sensor_type;location;lat;lon;timestamp;P1;durP1;ratioP1;P2;durP2;ratioP2
75218;SDS011;63801;49.414;19.474;2024-03-25T00:01:28;6.10;;;3.25;;
75218;SDS011;63801;49.414;19.474;2024-03-25T00:03:28;6.15;;;3.28;;
75218;SDS011;63801;49.414;19.474;2024-03-25T00:05:29;8.63;;;3.22;;
75218;SDS011;63801;49.414;19.474;2024-03-25T00:07:31;7.57;;;3.42;;
75218;SDS011;63801;49.414;19.474;2024-03-25T00:09:31;8.90;;;3.72;;
75218;SDS011;63801;49.414;19.474;2024-03-25T00:11:31;8.55;;;3.80;;
75218;SDS011;63801;49.414;19.474;2024-03-25T00:13:32;6.30;;;3.30;;
75218;SDS011;63801;49.414;19.474;2024-03-25T00:15:32;6.22;;;3.20;;
75218;SDS011;63801;49.414;19.474;2024-03-25T00:17:34;6.75;;;3.25;;
75218;SDS011;63801;49.414;19.474;2024-03-25T00:19:34;7.55;;;3.42;;
75218;SDS011;63801;49.414;19.474;2024-03-25T00:21:34;7.35;;;3.47;;
75218;SDS011;63801;49.414;19.474;2024-03-25T00:23:35;5.18;;;2.47;;
75218;SDS011;63801;49.414;19.474;2024-03-25T00:25:35;10.93;;;4.43;;
75218;SDS011;63801;49.414;19.474;2024-03-25T00:27:35;6.03;;;3.10;;
75218;SDS011;63801;49.414;19.474;2024-03-25T00:29:36;7.38;;;3.42;;
75218;SDS011;63801;49.414;19.474;2024-03-25T00:31:36;13.75;;;4.68;;
75218;SDS011;63801;49.414;19.474;2024-03-25T00:33:36;9.50;;;3.95;;
75218;SDS011;63801;49.414;19.474;2024-03-25T00:35:37;6.00;;;3.08;;
75218;SDS011;63801;49.414;19.474;2024-03-25T00:37:38;6.75;;;2.80;;
75218;SDS011;63801;49.414;19.474;2024-03-25T00:39:38;4.32;;;2.95;;
75218;SDS011;63801;49.414;19.474;2024-03-25T00:41:39;5.78;;;2.42;;
75218;SDS011;63801;49.414;19.474;2024-03-25T00:43:39;4.63;;;2.55;;
75218;SDS011;63801;49.414;19.474;2024-03-25T00:45:39;5.32;;;2.28;;
75218;SDS011;63801;49.414;19.474;2024-03-25T00:47:39;4.80;;;2.47;;
75218;SDS011;63801;49.414;19.474;2024-03-25T00:49:40;4.82;;;2.67;;
75218;SDS011;63801;49.414;19.474;2024-03-25T00:51:40;5.30;;;2.55;;
75218;SDS011;63801;49.414;19.474;2024-03-25T00:53:41;6.45;;;2.65;;
75218;SDS011;63801;49.414;19.474;2024-03-25T00:55:42;4.70;;;2.40;;
75218;SDS011;63801;49.414;19.474;2024-03-25T00:57:42;3.88;;;2.25;;
75218;SDS011;63801;49.414;19.474;2024-03-25T00:59:43;3.67;;;2.17;;
75218;SDS011;63801;49.414;19.474;2024-03-25T01:01:44;4.60;;;2.20;;
75218;SDS011;63801;49.414;19.474;2024-03-25T01:03:44;5.70;;;2.50;;
75218;SDS011;63801;49.414;19.474;2024-03-25T01:05:44;4.80;;;2.55;;
75218;SDS011;63801;49.414;19.474;2024-03-25T01:07:45;4.65;;;2.78;;
75218;SDS011;63801;49.414;19.474;2024-03-25T01:09:45;10.50;;;3.50;;
75218;SDS011;63801;49.414;19.474;2024-03-25T01:11:45;6.05;;;3.03;;
75218;SDS011;63801;49.414;19.474;2024-03-25T01:13:46;7.43;;;3.78;;
75218;SDS011;63801;49.414;19.474;2024-03-25T01:15:46;6.50;;;3.15;;
75218;SDS011;63801;49.414;19.474;2024-03-25T01:17:46;8.68;;;3.72;;
75218;SDS011;63801;49.414;19.474;2024-03-25T01:19:47;8.60;;;3.60;;
75218;SDS011;63801;49.414;19.474;2024-03-25T01:21:47;5.30;;;3.08;;
75218;SDS011;63801;49.414;19.474;2024-03-25T01:23:47;7.60;;;3.35;;
75218;SDS011;63801;49.414;19.474;2024-03-25T01:25:48;6.13;;;3.17;;
75218;SDS011;63801;49.414;19.474;2024-03-25T01:27:48;5.68;;;3.17;;
75218;SDS011;63801;49.414;19.474;2024-03-25T01:29:48;6.80;;;3.03;;
75218;SDS011;63801;49.414;19.474;2024-03-25T01:31:49;8.27;;;3.38;;
75218;SDS011;63801;49.414;19.474;2024-03-25T01:33:49;5.75;;;3.20;;
75218;SDS011;63801;49.414;19.474;2024-03-25T01:35:49;6.63;;;3.70;;
75218;SDS011;63801;49.414;19.474;2024-03-25T01:37:50;6.97;;;4.22;;
75218;SDS011;63801;49.414;19.474;2024-03-25T01:39:50;7.60;;;4.15;;
75218;SDS011;63801;49.414;19.474;2024-03-25T01:41:50;7.35;;;4.05;;
75218;SDS011;63801;49.414;19.474;2024-03-25T01:43:51;6.38;;;3.40;;
75218;SDS011;63801;49.414;19.474;2024-03-25T01:45:51;8.00;;;3.80;;
75218;SDS011;63801;49.414;19.474;2024-03-25T01:47:53;6.93;;;3.20;;
75218;SDS011;63801;49.414;19.474;2024-03-25T01:51:56;6.00;;;2.90;;
75218;SDS011;63801;49.414;19.474;2024-03-25T01:53:58;6.88;;;3.47;;
75218;SDS011;63801;49.414;19.474;2024-03-25T01:55:59;6.65;;;3.30;;
75218;SDS011;63801;49.414;19.474;2024-03-25T01:58:00;7.55;;;3.42;;
75218;SDS011;63801;49.414;19.474;2024-03-25T02:00:02;6.93;;;3.50;;
75218;SDS011;63801;49.414;19.474;2024-03-25T02:02:03;5.65;;;3.45;;
75218;SDS011;63801;49.414;19.474;2024-03-25T02:04:04;6.68;;;3.90;;
75218;SDS011;63801;49.414;19.474;2024-03-25T02:06:06;5.90;;;3.22;;
75218;SDS011;63801;49.414;19.474;2024-03-25T02:08:09;6.80;;;3.58;;
75218;SDS011;63801;49.414;19.474;2024-03-25T02:10:11;7.78;;;3.75;;
75218;SDS011;63801;49.414;19.474;2024-03-25T02:12:14;5.40;;;3.15;;
75218;SDS011;63801;49.414;19.474;2024-03-25T02:14:15;5.90;;;3.53;;
75218;SDS011;63801;49.414;19.474;2024-03-25T02:16:16;6.75;;;3.40;;
75218;SDS011;63801;49.414;19.474;2024-03-25T02:18:17;6.70;;;3.58;;
75218;SDS011;63801;49.414;19.474;2024-03-25T02:20:18;7.38;;;3.42;;
75218;SDS011;63801;49.414;19.474;2024-03-25T02:22:18;6.47;;;3.20;;
75218;SDS011;63801;49.414;19.474;2024-03-25T02:24:19;5.75;;;2.90;;
75218;SDS011;63801;49.414;19.474;2024-03-25T02:26:20;8.38;;;3.20;;
75218;SDS011;63801;49.414;19.474;2024-03-25T02:28:21;8.40;;;3.47;;
75218;SDS011;63801;49.414;19.474;2024-03-25T02:30:21;4.53;;;2.83;;
75218;SDS011;63801;49.414;19.474;2024-03-25T02:32:22;7.70;;;3.35;;
75218;SDS011;63801;49.414;19.474;2024-03-25T02:34:22;5.82;;;3.00;;
75218;SDS011;63801;49.414;19.474;2024-03-25T02:36:22;7.03;;;3.30;;
75218;SDS011;63801;49.414;19.474;2024-03-25T02:38:23;6.55;;;3.35;;
75218;SDS011;63801;49.414;19.474;2024-03-25T02:40:23;5.68;;;2.85;;
75218;SDS011;63801;49.414;19.474;2024-03-25T02:42:25;4.82;;;3.10;;
75218;SDS011;63801;49.414;19.474;2024-03-25T02:44:29;5.20;;;2.42;;
75218;SDS011;63801;49.414;19.474;2024-03-25T02:46:30;5.72;;;3.05;;
75218;SDS011;63801;49.414;19.474;2024-03-25T02:48:31;6.07;;;3.17;;
75218;SDS011;63801;49.414;19.474;2024-03-25T02:50:31;6.28;;;2.78;;
75218;SDS011;63801;49.414;19.474;2024-03-25T02:52:31;4.15;;;2.60;;
75218;SDS011;63801;49.414;19.474;2024-03-25T02:54:31;6.90;;;3.33;;
75218;SDS011;63801;49.414;19.474;2024-03-25T02:56:33;5.18;;;2.58;;
75218;SDS011;63801;49.414;19.474;2024-03-25T02:58:36;5.18;;;2.47;;
75218;SDS011;63801;49.414;19.474;2024-03-25T03:00:37;4.57;;;2.50;;
75218;SDS011;63801;49.414;19.474;2024-03-25T03:02:37;4.47;;;2.40;;
75218;SDS011;63801;49.414;19.474;2024-03-25T03:04:37;5.35;;;2.75;;
75218;SDS011;63801;49.414;19.474;2024-03-25T03:06:38;3.97;;;2.10;;
75218;SDS011;63801;49.414;19.474;2024-03-25T03:08:38;4.13;;;2.50;;
75218;SDS011;63801;49.414;19.474;2024-03-25T03:10:38;5.78;;;2.60;;
75218;SDS011;63801;49.414;19.474;2024-03-25T03:12:38;4.15;;;2.67;;
75218;SDS011;63801;49.414;19.474;2024-03-25T03:14:39;4.20;;;2.33;;
75218;SDS011;63801;49.414;19.474;2024-03-25T03:16:39;4.78;;;2.85;;
75218;SDS011;63801;49.414;19.474;2024-03-25T03:18:39;4.20;;;2.45;;
75218;SDS011;63801;49.414;19.474;2024-03-25T03:20:40;5.53;;;3.08;;
75218;SDS011;63801;49.414;19.474;2024-03-25T03:22:40;5.57;;;3.00;;
75218;SDS011;63801;49.414;19.474;2024-03-25T03:24:40;5.93;;;2.78;;
75218;SDS011;63801;49.414;19.474;2024-03-25T03:26:41;5.38;;;2.78;;
75218;SDS011;63801;49.414;19.474;2024-03-25T03:28:41;4.90;;;2.80;;
75218;SDS011;63801;49.414;19.474;2024-03-25T03:30:42;7.15;;;3.30;;
75218;SDS011;63801;49.414;19.474;2024-03-25T03:32:42;5.97;;;3.35;;
75218;SDS011;63801;49.414;19.474;2024-03-25T03:34:42;4.97;;;2.90;;
75218;SDS011;63801;49.414;19.474;2024-03-25T03:36:43;5.05;;;2.80;;
75218;SDS011;63801;49.414;19.474;2024-03-25T03:38:43;3.50;;;2.33;;
75218;SDS011;63801;49.414;19.474;2024-03-25T03:40:44;6.20;;;3.15;;
75218;SDS011;63801;49.414;19.474;2024-03-25T03:42:55;6.03;;;3.25;;
75218;SDS011;63801;49.414;19.474;2024-03-25T03:44:55;6.05;;;2.85;;
75218;SDS011;63801;49.414;19.474;2024-03-25T03:46:56;6.30;;;3.72;;
75218;SDS011;63801;49.414;19.474;2024-03-25T03:48:56;4.38;;;2.55;;
75218;SDS011;63801;49.414;19.474;2024-03-25T03:50:56;4.82;;;2.58;;
75218;SDS011;63801;49.414;19.474;2024-03-25T03:52:57;7.03;;;3.35;;
75218;SDS011;63801;49.414;19.474;2024-03-25T03:54:57;5.53;;;2.83;;
75218;SDS011;63801;49.414;19.474;2024-03-25T03:56:58;5.03;;;2.63;;
75218;SDS011;63801;49.414;19.474;2024-03-25T03:58:58;4.60;;;2.42;;
75218;SDS011;63801;49.414;19.474;2024-03-25T04:00:58;5.53;;;3.05;;
75218;SDS011;63801;49.414;19.474;2024-03-25T04:02:59;3.97;;;2.35;;
75218;SDS011;63801;49.414;19.474;2024-03-25T04:05:00;6.05;;;2.58;;
75218;SDS011;63801;49.414;19.474;2024-03-25T04:07:01;5.63;;;2.50;;
75218;SDS011;63801;49.414;19.474;2024-03-25T04:09:02;7.85;;;2.45;;
75218;SDS011;63801;49.414;19.474;2024-03-25T04:11:04;4.93;;;2.57;;
75218;SDS011;63801;49.414;19.474;2024-03-25T04:13:06;5.10;;;2.70;;
75218;SDS011;63801;49.414;19.474;2024-03-25T04:15:08;4.80;;;2.63;;
75218;SDS011;63801;49.414;19.474;2024-03-25T04:17:09;6.03;;;2.88;;
75218;SDS011;63801;49.414;19.474;2024-03-25T04:19:12;6.43;;;3.00;;
75218;SDS011;63801;49.414;19.474;2024-03-25T04:21:13;7.47;;;3.30;;
75218;SDS011;63801;49.414;19.474;2024-03-25T04:23:13;5.90;;;2.85;;
75218;SDS011;63801;49.414;19.474;2024-03-25T04:25:14;7.18;;;3.13;;
75218;SDS011;63801;49.414;19.474;2024-03-25T04:27:14;7.35;;;2.83;;
75218;SDS011;63801;49.414;19.474;2024-03-25T04:29:15;6.97;;;3.03;;
75218;SDS011;63801;49.414;19.474;2024-03-25T04:31:16;5.20;;;3.08;;
75218;SDS011;63801;49.414;19.474;2024-03-25T04:33:16;6.13;;;3.00;;
75218;SDS011;63801;49.414;19.474;2024-03-25T04:35:16;9.23;;;2.95;;
75218;SDS011;63801;49.414;19.474;2024-03-25T04:37:17;4.68;;;2.42;;
75218;SDS011;63801;49.414;19.474;2024-03-25T04:39:17;5.20;;;2.92;;
75218;SDS011;63801;49.414;19.474;2024-03-25T04:41:18;7.07;;;3.53;;
75218;SDS011;63801;49.414;19.474;2024-03-25T04:43:18;7.13;;;2.85;;
75218;SDS011;63801;49.414;19.474;2024-03-25T04:45:19;18.52;;;7.22;;
75218;SDS011;63801;49.414;19.474;2024-03-25T04:47:19;8.00;;;4.13;;
75218;SDS011;63801;49.414;19.474;2024-03-25T04:49:20;12.45;;;5.20;;
75218;SDS011;63801;49.414;19.474;2024-03-25T04:51:20;15.05;;;5.85;;
75218;SDS011;63801;49.414;19.474;2024-03-25T04:53:21;11.73;;;4.22;;
75218;SDS011;63801;49.414;19.474;2024-03-25T04:55:21;13.52;;;5.10;;
75218;SDS011;63801;49.414;19.474;2024-03-25T04:57:21;8.93;;;4.05;;
75218;SDS011;63801;49.414;19.474;2024-03-25T04:59:22;11.38;;;5.85;;
75218;SDS011;63801;49.414;19.474;2024-03-25T05:01:23;10.73;;;5.05;;
75218;SDS011;63801;49.414;19.474;2024-03-25T05:03:23;8.95;;;4.68;;
75218;SDS011;63801;49.414;19.474;2024-03-25T05:05:23;6.28;;;4.00;;
75218;SDS011;63801;49.414;19.474;2024-03-25T05:07:24;9.75;;;3.97;;
75218;SDS011;63801;49.414;19.474;2024-03-25T05:09:24;5.75;;;3.38;;
75218;SDS011;63801;49.414;19.474;2024-03-25T05:11:25;9.27;;;3.75;;
75218;SDS011;63801;49.414;19.474;2024-03-25T05:13:25;6.20;;;3.15;;
75218;SDS011;63801;49.414;19.474;2024-03-25T05:15:25;9.32;;;3.70;;
75218;SDS011;63801;49.414;19.474;2024-03-25T05:17:26;12.75;;;5.50;;
75218;SDS011;63801;49.414;19.474;2024-03-25T05:19:26;8.07;;;3.67;;
75218;SDS011;63801;49.414;19.474;2024-03-25T05:21:26;6.35;;;3.50;;
75218;SDS011;63801;49.414;19.474;2024-03-25T05:23:27;4.93;;;2.78;;
75218;SDS011;63801;49.414;19.474;2024-03-25T05:25:27;5.85;;;3.25;;
75218;SDS011;63801;49.414;19.474;2024-03-25T05:27:28;7.03;;;3.35;;
75218;SDS011;63801;49.414;19.474;2024-03-25T05:29:29;5.93;;;2.85;;
75218;SDS011;63801;49.414;19.474;2024-03-25T05:31:29;6.55;;;3.28;;
75218;SDS011;63801;49.414;19.474;2024-03-25T05:33:30;7.35;;;3.55;;
75218;SDS011;63801;49.414;19.474;2024-03-25T05:35:31;6.30;;;3.08;;
75218;SDS011;63801;49.414;19.474;2024-03-25T05:37:34;6.10;;;2.53;;
75218;SDS011;63801;49.414;19.474;2024-03-25T05:39:36;9.27;;;3.80;;
75218;SDS011;63801;49.414;19.474;2024-03-25T05:41:36;7.15;;;3.58;;
75218;SDS011;63801;49.414;19.474;2024-03-25T05:43:36;6.82;;;3.42;;
75218;SDS011;63801;49.414;19.474;2024-03-25T05:45:37;4.88;;;2.47;;
75218;SDS011;63801;49.414;19.474;2024-03-25T05:47:37;4.15;;;2.60;;
75218;SDS011;63801;49.414;19.474;2024-03-25T05:49:38;7.30;;;3.45;;
75218;SDS011;63801;49.414;19.474;2024-03-25T05:51:38;9.75;;;4.60;;
75218;SDS011;63801;49.414;19.474;2024-03-25T05:53:39;5.35;;;2.72;;
75218;SDS011;63801;49.414;19.474;2024-03-25T05:55:39;5.75;;;2.50;;
75218;SDS011;63801;49.414;19.474;2024-03-25T05:57:40;8.63;;;3.33;;
75218;SDS011;63801;49.414;19.474;2024-03-25T05:59:40;6.15;;;2.80;;
75218;SDS011;63801;49.414;19.474;2024-03-25T06:01:41;9.45;;;3.03;;
75218;SDS011;63801;49.414;19.474;2024-03-25T06:03:41;13.18;;;4.15;;
75218;SDS011;63801;49.414;19.474;2024-03-25T06:05:41;9.32;;;3.90;;
75218;SDS011;63801;49.414;19.474;2024-03-25T06:07:41;8.02;;;2.92;;
75218;SDS011;63801;49.414;19.474;2024-03-25T06:09:42;9.23;;;3.42;;
75218;SDS011;63801;49.414;19.474;2024-03-25T06:11:42;8.00;;;3.10;;
75218;SDS011;63801;49.414;19.474;2024-03-25T06:13:45;6.00;;;2.50;;
75218;SDS011;63801;49.414;19.474;2024-03-25T06:15:46;4.38;;;2.30;;
75218;SDS011;63801;49.414;19.474;2024-03-25T06:17:46;4.22;;;2.00;;
75218;SDS011;63801;49.414;19.474;2024-03-25T06:19:47;4.10;;;2.25;;
75218;SDS011;63801;49.414;19.474;2024-03-25T06:21:47;5.22;;;2.38;;
75218;SDS011;63801;49.414;19.474;2024-03-25T06:23:47;4.82;;;1.98;;
75218;SDS011;63801;49.414;19.474;2024-03-25T06:25:48;3.38;;;1.73;;
75218;SDS011;63801;49.414;19.474;2024-03-25T06:27:49;3.70;;;2.10;;
75218;SDS011;63801;49.414;19.474;2024-03-25T06:29:49;4.18;;;2.22;;
75218;SDS011;63801;49.414;19.474;2024-03-25T06:32:09;6.07;;;3.17;;
75218;SDS011;63801;49.414;19.474;2024-03-25T06:34:45;3.33;;;1.70;;
75218;SDS011;63801;49.414;19.474;2024-03-25T06:36:46;8.40;;;2.55;;
75218;SDS011;63801;49.414;19.474;2024-03-25T06:38:47;5.17;;;1.90;;
75218;SDS011;63801;49.414;19.474;2024-03-25T06:40:48;9.68;;;4.30;;
75218;SDS011;63801;49.414;19.474;2024-03-25T06:42:48;5.55;;;2.35;;
75218;SDS011;63801;49.414;19.474;2024-03-25T06:44:48;12.50;;;4.50;;
75218;SDS011;63801;49.414;19.474;2024-03-25T06:46:50;5.47;;;2.58;;
75218;SDS011;63801;49.414;19.474;2024-03-25T06:48:50;6.93;;;2.95;;
75218;SDS011;63801;49.414;19.474;2024-03-25T06:50:55;13.35;;;4.70;;
75218;SDS011;63801;49.414;19.474;2024-03-25T06:52:57;24.33;;;10.32;;
75218;SDS011;63801;49.414;19.474;2024-03-25T06:54:57;8.10;;;3.47;;
75218;SDS011;63801;49.414;19.474;2024-03-25T06:56:57;6.85;;;2.53;;
75218;SDS011;63801;49.414;19.474;2024-03-25T06:58:57;13.25;;;6.50;;
75218;SDS011;63801;49.414;19.474;2024-03-25T07:01:03;14.80;;;7.13;;
75218;SDS011;63801;49.414;19.474;2024-03-25T07:03:05;18.95;;;8.60;;
75218;SDS011;63801;49.414;19.474;2024-03-25T07:05:06;7.38;;;4.10;;
75218;SDS011;63801;49.414;19.474;2024-03-25T07:07:06;4.60;;;2.10;;
75218;SDS011;63801;49.414;19.474;2024-03-25T07:09:08;6.05;;;2.83;;
75218;SDS011;63801;49.414;19.474;2024-03-25T07:11:11;8.93;;;3.63;;
75218;SDS011;63801;49.414;19.474;2024-03-25T07:13:11;9.13;;;2.20;;
75218;SDS011;63801;49.414;19.474;2024-03-25T07:15:12;5.00;;;2.17;;
75218;SDS011;63801;49.414;19.474;2024-03-25T07:17:13;6.53;;;2.70;;
75218;SDS011;63801;49.414;19.474;2024-03-25T07:19:13;5.30;;;1.90;;
75218;SDS011;63801;49.414;19.474;2024-03-25T07:21:13;6.97;;;2.40;;
75218;SDS011;63801;49.414;19.474;2024-03-25T07:23:13;9.30;;;3.80;;
75218;SDS011;63801;49.414;19.474;2024-03-25T07:25:14;5.03;;;2.50;;
75218;SDS011;63801;49.414;19.474;2024-03-25T07:27:14;7.20;;;2.80;;
75218;SDS011;63801;49.414;19.474;2024-03-25T07:29:16;5.57;;;2.50;;
75218;SDS011;63801;49.414;19.474;2024-03-25T07:31:17;4.30;;;2.20;;
75218;SDS011;63801;49.414;19.474;2024-03-25T07:33:17;5.07;;;2.13;;
75218;SDS011;63801;49.414;19.474;2024-03-25T07:35:18;3.85;;;2.45;;
75218;SDS011;63801;49.414;19.474;2024-03-25T07:37:18;4.90;;;2.45;;
75218;SDS011;63801;49.414;19.474;2024-03-25T07:39:19;8.70;;;3.60;;
75218;SDS011;63801;49.414;19.474;2024-03-25T07:41:19;7.35;;;3.08;;
75218;SDS011;63801;49.414;19.474;2024-03-25T07:43:19;5.15;;;2.33;;
75218;SDS011;63801;49.414;19.474;2024-03-25T07:45:20;5.72;;;2.92;;
75218;SDS011;63801;49.414;19.474;2024-03-25T07:47:20;7.00;;;3.15;;
75218;SDS011;63801;49.414;19.474;2024-03-25T07:49:20;3.67;;;2.40;;
75218;SDS011;63801;49.414;19.474;2024-03-25T07:51:21;5.72;;;2.85;;
75218;SDS011;63801;49.414;19.474;2024-03-25T07:53:22;3.38;;;2.00;;
75218;SDS011;63801;49.414;19.474;2024-03-25T07:55:22;4.28;;;2.60;;
75218;SDS011;63801;49.414;19.474;2024-03-25T07:57:22;4.82;;;2.88;;
75218;SDS011;63801;49.414;19.474;2024-03-25T07:59:23;2.85;;;1.88;;
75218;SDS011;63801;49.414;19.474;2024-03-25T08:01:23;4.47;;;1.95;;
75218;SDS011;63801;49.414;19.474;2024-03-25T08:03:24;3.55;;;2.15;;
75218;SDS011;63801;49.414;19.474;2024-03-25T08:05:25;3.28;;;1.80;;
75218;SDS011;63801;49.414;19.474;2024-03-25T08:07:25;3.97;;;2.05;;
75218;SDS011;63801;49.414;19.474;2024-03-25T08:09:26;4.57;;;2.30;;
75218;SDS011;63801;49.414;19.474;2024-03-25T08:11:26;4.82;;;2.40;;
75218;SDS011;63801;49.414;19.474;2024-03-25T08:13:27;4.55;;;2.10;;
75218;SDS011;63801;49.414;19.474;2024-03-25T08:15:27;4.93;;;2.13;;
75218;SDS011;63801;49.414;19.474;2024-03-25T08:17:27;7.05;;;3.30;;
75218;SDS011;63801;49.414;19.474;2024-03-25T08:19:28;7.25;;;3.10;;
75218;SDS011;63801;49.414;19.474;2024-03-25T08:21:28;5.40;;;2.80;;
75218;SDS011;63801;49.414;19.474;2024-03-25T08:23:28;5.68;;;3.10;;
75218;SDS011;63801;49.414;19.474;2024-03-25T08:25:29;6.45;;;3.30;;
75218;SDS011;63801;49.414;19.474;2024-03-25T08:27:29;3.97;;;2.00;;
75218;SDS011;63801;49.414;19.474;2024-03-25T08:29:30;7.05;;;2.70;;
75218;SDS011;63801;49.414;19.474;2024-03-25T08:31:30;6.40;;;3.30;;
75218;SDS011;63801;49.414;19.474;2024-03-25T08:33:30;7.63;;;4.00;;
75218;SDS011;63801;49.414;19.474;2024-03-25T08:35:31;3.88;;;2.53;;
75218;SDS011;63801;49.414;19.474;2024-03-25T08:37:31;4.22;;;2.25;;
75218;SDS011;63801;49.414;19.474;2024-03-25T08:39:31;4.43;;;2.10;;
75218;SDS011;63801;49.414;19.474;2024-03-25T08:41:32;2.60;;;1.50;;
75218;SDS011;63801;49.414;19.474;2024-03-25T08:43:32;2.85;;;1.50;;
75218;SDS011;63801;49.414;19.474;2024-03-25T08:45:33;1.77;;;1.20;;
75218;SDS011;63801;49.414;19.474;2024-03-25T08:47:33;1.98;;;1.10;;
75218;SDS011;63801;49.414;19.474;2024-03-25T08:49:33;2.63;;;1.33;;
75218;SDS011;63801;49.414;19.474;2024-03-25T08:51:34;1.67;;;1.35;;
75218;SDS011;63801;49.414;19.474;2024-03-25T08:53:34;1.67;;;1.20;;
75218;SDS011;63801;49.414;19.474;2024-03-25T08:55:34;1.92;;;1.40;;
75218;SDS011;63801;49.414;19.474;2024-03-25T08:57:35;1.92;;;1.15;;
75218;SDS011;63801;49.414;19.474;2024-03-25T08:59:35;4.32;;;1.98;;
75218;SDS011;63801;49.414;19.474;2024-03-25T09:01:36;6.03;;;2.17;;
75218;SDS011;63801;49.414;19.474;2024-03-25T09:03:36;2.85;;;1.33;;
75218;SDS011;63801;49.414;19.474;2024-03-25T09:05:37;1.88;;;1.30;;
75218;SDS011;63801;49.414;19.474;2024-03-25T09:07:38;7.53;;;2.58;;
75218;SDS011;63801;49.414;19.474;2024-03-25T09:09:39;4.47;;;2.40;;
75218;SDS011;63801;49.414;19.474;2024-03-25T09:11:58;3.47;;;2.13;;
75218;SDS011;63801;49.414;19.474;2024-03-25T09:13:59;6.70;;;3.05;;
75218;SDS011;63801;49.414;19.474;2024-03-25T09:15:59;7.30;;;3.03;;
75218;SDS011;63801;49.414;19.474;2024-03-25T09:18:00;6.78;;;3.63;;
75218;SDS011;63801;49.414;19.474;2024-03-25T09:20:00;5.07;;;2.90;;
75218;SDS011;63801;49.414;19.474;2024-03-25T09:22:00;8.05;;;2.92;;
75218;SDS011;63801;49.414;19.474;2024-03-25T09:24:01;8.65;;;3.63;;
75218;SDS011;63801;49.414;19.474;2024-03-25T09:26:01;5.45;;;3.05;;
75218;SDS011;63801;49.414;19.474;2024-03-25T09:28:02;10.20;;;4.45;;
75218;SDS011;63801;49.414;19.474;2024-03-25T09:30:03;10.18;;;4.30;;
75218;SDS011;63801;49.414;19.474;2024-03-25T09:32:07;14.77;;;5.15;;
75218;SDS011;63801;49.414;19.474;2024-03-25T09:34:08;10.85;;;4.22;;
75218;SDS011;63801;49.414;19.474;2024-03-25T09:36:10;9.95;;;4.35;;
75218;SDS011;63801;49.414;19.474;2024-03-25T09:38:11;3.05;;;2.00;;
75218;SDS011;63801;49.414;19.474;2024-03-25T09:40:12;5.20;;;3.10;;
75218;SDS011;63801;49.414;19.474;2024-03-25T09:42:14;4.10;;;1.75;;
75218;SDS011;63801;49.414;19.474;2024-03-25T09:44:18;4.97;;;2.85;;
75218;SDS011;63801;49.414;19.474;2024-03-25T09:46:23;6.22;;;2.72;;
75218;SDS011;63801;49.414;19.474;2024-03-25T09:48:24;3.85;;;1.98;;
75218;SDS011;63801;49.414;19.474;2024-03-25T09:50:24;3.53;;;1.60;;
75218;SDS011;63801;49.414;19.474;2024-03-25T09:52:25;4.53;;;1.98;;
75218;SDS011;63801;49.414;19.474;2024-03-25T09:54:25;2.53;;;1.30;;
75218;SDS011;63801;49.414;19.474;2024-03-25T09:56:26;3.67;;;1.50;;
75218;SDS011;63801;49.414;19.474;2024-03-25T09:58:26;6.95;;;2.40;;
75218;SDS011;63801;49.414;19.474;2024-03-25T10:00:28;2.35;;;0.95;;
75218;SDS011;63801;49.414;19.474;2024-03-25T10:02:30;4.50;;;1.60;;
75218;SDS011;63801;49.414;19.474;2024-03-25T10:04:30;4.30;;;1.95;;
75218;SDS011;63801;49.414;19.474;2024-03-25T10:06:32;5.17;;;2.00;;
75218;SDS011;63801;49.414;19.474;2024-03-25T10:08:33;3.88;;;1.75;;
75218;SDS011;63801;49.414;19.474;2024-03-25T10:10:33;2.97;;;1.42;;
75218;SDS011;63801;49.414;19.474;2024-03-25T10:12:35;3.28;;;1.50;;
75218;SDS011;63801;49.414;19.474;2024-03-25T10:14:36;2.58;;;1.40;;
75218;SDS011;63801;49.414;19.474;2024-03-25T10:16:40;4.90;;;2.38;;
75218;SDS011;63801;49.414;19.474;2024-03-25T10:18:40;4.35;;;1.70;;
75218;SDS011;63801;49.414;19.474;2024-03-25T10:20:51;6.22;;;2.50;;
75218;SDS011;63801;49.414;19.474;2024-03-25T10:22:52;3.95;;;2.45;;
75218;SDS011;63801;49.414;19.474;2024-03-25T10:24:52;7.03;;;3.30;;
75218;SDS011;63801;49.414;19.474;2024-03-25T10:26:52;8.60;;;3.22;;
75218;SDS011;63801;49.414;19.474;2024-03-25T10:29:00;8.05;;;3.10;;
75218;SDS011;63801;49.414;19.474;2024-03-25T10:31:04;8.80;;;4.18;;
75218;SDS011;63801;49.414;19.474;2024-03-25T10:33:06;3.80;;;1.83;;
75218;SDS011;63801;49.414;19.474;2024-03-25T10:35:06;2.92;;;1.30;;
75218;SDS011;63801;49.414;19.474;2024-03-25T10:37:10;2.85;;;1.40;;
75218;SDS011;63801;49.414;19.474;2024-03-25T10:39:11;4.88;;;2.00;;
75218;SDS011;63801;49.414;19.474;2024-03-25T10:41:13;4.60;;;1.75;;
75218;SDS011;63801;49.414;19.474;2024-03-25T10:43:17;4.80;;;1.92;;
75218;SDS011;63801;49.414;19.474;2024-03-25T10:45:19;2.63;;;1.38;;
75218;SDS011;63801;49.414;19.474;2024-03-25T10:47:25;3.92;;;1.25;;
75218;SDS011;63801;49.414;19.474;2024-03-25T10:49:32;2.13;;;1.23;;
75218;SDS011;63801;49.414;19.474;2024-03-25T10:51:39;1.95;;;1.10;;
75218;SDS011;63801;49.414;19.474;2024-03-25T10:53:40;1.63;;;0.90;;
75218;SDS011;63801;49.414;19.474;2024-03-25T10:55:42;2.03;;;1.17;;
75218;SDS011;63801;49.414;19.474;2024-03-25T10:57:48;2.08;;;0.80;;
75218;SDS011;63801;49.414;19.474;2024-03-25T10:59:49;1.35;;;0.80;;
75218;SDS011;63801;49.414;19.474;2024-03-25T11:01:49;3.28;;;0.93;;
75218;SDS011;63801;49.414;19.474;2024-03-25T11:03:50;2.58;;;1.50;;
75218;SDS011;63801;49.414;19.474;2024-03-25T11:05:50;4.68;;;1.00;;
75218;SDS011;63801;49.414;19.474;2024-03-25T11:07:51;3.10;;;1.60;;
75218;SDS011;63801;49.414;19.474;2024-03-25T11:09:51;2.92;;;1.17;;
75218;SDS011;63801;49.414;19.474;2024-03-25T11:12:05;3.40;;;1.58;;
75218;SDS011;63801;49.414;19.474;2024-03-25T11:14:15;4.40;;;1.25;;
75218;SDS011;63801;49.414;19.474;2024-03-25T11:16:26;1.52;;;1.20;;
75218;SDS011;63801;49.414;19.474;2024-03-25T11:18:29;8.07;;;2.45;;
75218;SDS011;63801;49.414;19.474;2024-03-25T11:20:31;8.77;;;2.88;;
75218;SDS011;63801;49.414;19.474;2024-03-25T11:22:31;4.85;;;1.33;;
75218;SDS011;63801;49.414;19.474;2024-03-25T11:24:32;0.85;;;0.57;;
75218;SDS011;63801;49.414;19.474;2024-03-25T11:26:32;6.47;;;1.67;;
75218;SDS011;63801;49.414;19.474;2024-03-25T11:28:35;12.82;;;3.22;;
75218;SDS011;63801;49.414;19.474;2024-03-25T11:30:36;3.45;;;1.38;;
75218;SDS011;63801;49.414;19.474;2024-03-25T11:34:53;2.50;;;1.38;;
75218;SDS011;63801;49.414;19.474;2024-03-25T11:36:53;3.95;;;1.60;;
75218;SDS011;63801;49.414;19.474;2024-03-25T11:39:03;3.13;;;1.52;;
75218;SDS011;63801;49.414;19.474;2024-03-25T11:41:05;2.83;;;1.48;;
75218;SDS011;63801;49.414;19.474;2024-03-25T11:43:05;2.10;;;1.40;;
75218;SDS011;63801;49.414;19.474;2024-03-25T11:47:16;1.77;;;1.00;;
75218;SDS011;63801;49.414;19.474;2024-03-25T11:49:17;1.67;;;1.20;;
75218;SDS011;63801;49.414;19.474;2024-03-25T11:51:17;1.90;;;1.40;;
75218;SDS011;63801;49.414;19.474;2024-03-25T11:53:18;2.15;;;1.40;;
75218;SDS011;63801;49.414;19.474;2024-03-25T11:55:18;4.25;;;1.98;;
75218;SDS011;63801;49.414;19.474;2024-03-25T11:57:18;3.40;;;2.10;;
75218;SDS011;63801;49.414;19.474;2024-03-25T11:59:19;2.17;;;1.08;;
75218;SDS011;63801;49.414;19.474;2024-03-25T12:01:19;1.27;;;0.95;;
75218;SDS011;63801;49.414;19.474;2024-03-25T12:03:20;1.02;;;0.88;;
75218;SDS011;63801;49.414;19.474;2024-03-25T12:05:20;0.80;;;0.65;;